Time;durP1;ratioP1;P1;durP2;ratioP2;P2;SDS_P1;SDS_P2;PMS_P1;PMS_P2;Temp;Humidity;BMP_temperature;BMP_pressure;BME280_temperature;BME280_humidity;BME280_pressure;Samples;Min_cycle;Max_cycle;Signal;HPM_P1;HPM_P2
2023/04/30 00:02:17;;;;;;;;;;;9.10;99.90;;;;;;4996515;28;19929;-71
2023/04/30 00:04:42;;;;;;;;;;;9.10;99.90;;;;;;5022102;28;20003;-72
2023/04/30 00:07:08;;;;;;;;;;;9.00;99.90;;;;;;5027044;28;19918;-72
2023/04/30 00:09:34;;;;;;;;;;;9.00;99.90;;;;;;5028799;28;19917;-68
2023/04/30 00:11:59;;;;;;;;;;;9.00;99.90;;;;;;4994520;28;19924;-69
2023/04/30 00:14:25;;;;;;;;;;;8.90;99.90;;;;;;4992681;28;19929;-68
2023/04/30 00:16:50;;;;;;;;;;;8.90;99.90;;;;;;4982435;28;20343;-68
2023/04/30 00:19:16;;;;;;;;;;;9.00;99.90;;;;;;5010756;28;19976;-70
2023/04/30 00:21:42;;;;;;;;;;;8.90;99.90;;;;;;5000135;28;19918;-68
2023/04/30 00:24:07;;;;;;;;;;;8.80;99.90;;;;;;4997632;28;19917;-68
2023/04/30 00:26:33;;;;;;;;;;;8.90;99.90;;;;;;5000428;28;19918;-68
2023/04/30 00:29:00;;;;;;;;;;;8.80;99.90;;;;;;4977736;28;19918;-68
2023/04/30 00:31:25;;;;;;;;;;;8.80;99.90;;;;;;5004480;28;19948;-68
2023/04/30 00:33:51;;;;;;;;;;;8.80;99.90;;;;;;4993109;28;20402;-68
2023/04/30 00:36:18;;;;;;;;;;;8.70;99.90;;;;;;4998654;28;20012;-68
2023/04/30 00:38:43;;;;;;;;;;;8.70;99.90;;;;;;5009417;28;20047;-67
2023/04/30 00:41:12;;;;;;;;;;;8.60;99.90;;;;;;4998672;28;19913;-68
2023/04/30 00:43:38;;;;;;;;;;;8.40;99.90;;;;;;4986575;28;19924;-68
2023/04/30 00:46:05;;;;;;;;;;;8.40;99.90;;;;;;5001587;28;19953;-67
2023/04/30 00:48:31;;;;;;;;;;;8.30;99.90;;;;;;4976422;28;19922;-67
2023/04/30 00:50:56;;;;;;;;;;;8.20;99.90;;;;;;5005740;28;20388;-67
2023/04/30 00:53:22;;;;;;;;;;;8.20;99.90;;;;;;5006251;28;19922;-67
2023/04/30 00:55:47;;;;;;;;;;;8.20;99.90;;;;;;5010052;28;20337;-68
2023/04/30 00:58:13;;;;;;;;;;;8.10;99.90;;;;;;5017157;28;19924;-68
2023/04/30 01:00:45;;;;;;;;;;;8.10;99.90;;;;;;5014004;28;19913;-68
2023/04/30 01:03:14;;;;;;;;;;;8.10;99.90;;;;;;5002771;28;19925;-68
2023/04/30 01:05:40;;;;;;;;;;;8.10;99.90;;;;;;5016106;28;20249;-68
2023/04/30 01:08:07;;;;;;;;;;;8.00;99.90;;;;;;5009005;28;19917;-68
2023/04/30 01:11:12;;;;;;;;;;;7.90;99.90;;;;;;4989504;28;19925;-68
2023/04/30 01:13:40;;;;;;;;;;;7.90;99.90;;;;;;4939409;29;20168;-66
2023/04/30 01:16:17;;;;;;;;;;;7.90;99.90;;;;;;4943147;29;19931;-68
2023/04/30 01:18:45;;;;;;;;;;;7.90;99.90;;;;;;4956839;28;19921;-68
2023/04/30 01:21:11;;;;;;;;;;;7.80;99.90;;;;;;4969431;28;19921;-68
2023/04/30 01:23:55;;;;;;;;;;;7.70;99.90;;;;;;4989699;28;20349;-66
2023/04/30 01:26:21;;;;;;;;;;;7.80;99.90;;;;;;5000753;28;20104;-66
2023/04/30 01:28:46;;;;;;;;;;;7.70;99.90;;;;;;4984454;28;20320;-67
2023/04/30 01:31:12;;;;;;;;;;;7.70;99.90;;;;;;4972822;28;19937;-67
2023/04/30 01:33:38;;;;;;;;;;;7.60;99.90;;;;;;4963348;28;20041;-67
2023/04/30 01:36:23;;;;;;;;;;;7.60;99.90;;;;;;4994349;28;20001;-66
2023/04/30 01:38:55;;;;;;;;;;;7.50;99.90;;;;;;4993537;28;19944;-67
2023/04/30 01:41:29;;;;;;;;;;;7.50;99.90;;;;;;4984653;28;19944;-67
2023/04/30 01:44:04;;;;;;;;;;;7.50;99.90;;;;;;4985891;28;19921;-67
2023/04/30 01:46:30;;;;;;;;;;;7.50;99.90;;;;;;4990137;28;19918;-66
2023/04/30 01:49:18;;;;;;;;;;;7.40;99.90;;;;;;4996435;28;20105;-67
2023/04/30 01:51:46;;;;;;;;;;;7.30;99.90;;;;;;4978904;28;19918;-68
2023/04/30 01:54:15;;;;;;;;;;;7.30;99.90;;;;;;4952593;28;19925;-66
2023/04/30 01:56:43;;;;;;;;;;;7.20;99.90;;;;;;4997429;28;19920;-67
2023/04/30 01:59:09;;;;;;;;;;;7.20;99.90;;;;;;4978461;28;19925;-66
2023/04/30 02:01:35;;;;;;;;;;;7.20;99.90;;;;;;4982443;28;19914;-67
2023/04/30 02:04:00;;;;;;;;;;;7.10;99.90;;;;;;4977943;28;19921;-66
2023/04/30 02:06:27;;;;;;;;;;;7.10;99.90;;;;;;4973947;28;20363;-67
2023/04/30 02:08:53;;;;;;;;;;;7.10;99.90;;;;;;4975459;28;19925;-67
2023/04/30 02:11:18;;;;;;;;;;;7.10;99.90;;;;;;4980152;28;19929;-67
2023/04/30 02:13:44;;;;;;;;;;;7.10;99.90;;;;;;4995712;28;19922;-67
2023/04/30 02:16:10;;;;;;;;;;;7.00;99.90;;;;;;4989770;28;19922;-67
2023/04/30 02:18:35;;;;;;;;;;;7.00;99.90;;;;;;4994502;28;19945;-66
2023/04/30 02:21:01;;;;;;;;;;;7.00;99.90;;;;;;4988131;28;19918;-67
2023/04/30 02:23:27;;;;;;;;;;;7.00;99.90;;;;;;4976722;28;19973;-67
2023/04/30 02:25:52;;;;;;;;;;;7.00;99.90;;;;;;4963374;28;20002;-66
2023/04/30 02:28:18;;;;;;;;;;;7.00;99.90;;;;;;4988946;28;19921;-67
2023/04/30 02:30:43;;;;;;;;;;;6.90;99.90;;;;;;4979192;28;19914;-66
2023/04/30 02:33:11;;;;;;;;;;;6.80;99.90;;;;;;4975329;28;20032;-66
2023/04/30 02:35:37;;;;;;;;;;;6.80;99.90;;;;;;4979499;28;19930;-67
2023/04/30 02:38:02;;;;;;;;;;;6.80;99.90;;;;;;4971260;28;20420;-67
2023/04/30 02:40:28;;;;;;;;;;;6.70;99.90;;;;;;4974172;28;19917;-67
2023/04/30 02:42:55;;;;;;;;;;;6.70;99.90;;;;;;4977422;28;20030;-66
2023/04/30 02:45:21;;;;;;;;;;;6.80;99.90;;;;;;4960403;28;19957;-67
2023/04/30 02:47:47;;;;;;;;;;;6.80;99.90;;;;;;4993670;28;20381;-67
2023/04/30 02:50:14;;;;;;;;;;;6.80;99.90;;;;;;4990080;28;19914;-67
2023/04/30 02:52:40;;;;;;;;;;;6.80;99.90;;;;;;4972320;28;19972;-67
2023/04/30 02:55:06;;;;;;;;;;;6.80;99.90;;;;;;4978333;28;19918;-67
2023/04/30 02:57:31;;;;;;;;;;;6.70;99.90;;;;;;4961046;28;19918;-67
2023/04/30 02:59:57;;;;;;;;;;;6.70;99.90;;;;;;4983093;28;19914;-67
2023/04/30 03:02:23;;;;;;;;;;;6.70;99.90;;;;;;4962962;28;20275;-67
2023/04/30 03:04:48;;;;;;;;;;;6.80;99.90;;;;;;4963707;28;20012;-66
2023/04/30 03:07:14;;;;;;;;;;;6.70;99.90;;;;;;4964398;28;20331;-66
2023/04/30 03:09:40;;;;;;;;;;;6.50;99.90;;;;;;4979633;28;19921;-66
2023/04/30 03:12:05;;;;;;;;;;;6.60;99.90;;;;;;4974229;28;19929;-66
2023/04/30 03:14:31;;;;;;;;;;;6.50;99.90;;;;;;4977079;28;19933;-66
2023/04/30 03:16:57;;;;;;;;;;;6.50;99.90;;;;;;4987386;28;20346;-66
2023/04/30 03:19:24;;;;;;;;;;;6.60;99.90;;;;;;4980146;28;20021;-66
2023/04/30 03:21:50;;;;;;;;;;;6.60;99.90;;;;;;4996232;28;19913;-67
2023/04/30 03:24:16;;;;;;;;;;;6.50;99.90;;;;;;4978103;28;19948;-67
2023/04/30 03:26:42;;;;;;;;;;;6.40;99.90;;;;;;4999000;28;19953;-67
2023/04/30 03:29:08;;;;;;;;;;;6.40;99.90;;;;;;5012520;28;20409;-67
2023/04/30 03:31:35;;;;;;;;;;;6.40;99.90;;;;;;4989906;28;19941;-67
2023/04/30 03:34:00;;;;;;;;;;;6.40;99.90;;;;;;4995855;28;19926;-67
2023/04/30 03:36:26;;;;;;;;;;;6.40;99.90;;;;;;4995217;28;19973;-68
2023/04/30 03:38:52;;;;;;;;;;;6.30;99.90;;;;;;4994329;28;19944;-68
2023/04/30 03:41:18;;;;;;;;;;;6.30;99.90;;;;;;5015734;28;20044;-68
2023/04/30 03:43:43;;;;;;;;;;;6.30;99.90;;;;;;5000205;28;19921;-68
2023/04/30 03:46:09;;;;;;;;;;;6.30;99.90;;;;;;4989520;28;19925;-68
2023/04/30 03:48:35;;;;;;;;;;;6.40;99.90;;;;;;5009296;28;19955;-68
2023/04/30 03:51:00;;;;;;;;;;;6.40;99.90;;;;;;5004902;28;19957;-68
2023/04/30 03:53:26;;;;;;;;;;;6.50;99.90;;;;;;4972268;28;20416;-68
2023/04/30 03:55:52;;;;;;;;;;;6.50;99.90;;;;;;5010610;28;19918;-68
2023/04/30 03:58:17;;;;;;;;;;;6.50;99.90;;;;;;5005745;28;19928;-68
2023/04/30 04:00:44;;;;;;;;;;;6.50;99.90;;;;;;4998969;28;19961;-68
2023/04/30 04:03:10;;;;;;;;;;;6.50;99.90;;;;;;5012899;28;19928;-67
2023/04/30 04:05:36;;;;;;;;;;;6.50;99.90;;;;;;4979447;28;19983;-68
2023/04/30 04:08:01;;;;;;;;;;;6.50;99.90;;;;;;5008049;28;19914;-67
2023/04/30 04:10:27;;;;;;;;;;;6.40;99.90;;;;;;5007946;28;20005;-68
2023/04/30 04:12:53;;;;;;;;;;;6.40;99.90;;;;;;4994632;28;19917;-67
2023/04/30 04:15:18;;;;;;;;;;;6.40;99.90;;;;;;5008204;28;20338;-67
2023/04/30 04:17:44;;;;;;;;;;;6.30;99.90;;;;;;4993436;28;19918;-68
2023/04/30 04:20:10;;;;;;;;;;;6.20;99.90;;;;;;4988950;28;19937;-67
2023/04/30 04:22:35;;;;;;;;;;;6.20;99.90;;;;;;4982572;28;20000;-68
2023/04/30 04:25:01;;;;;;;;;;;6.10;99.90;;;;;;4986812;28;19918;-68
2023/04/30 04:27:27;;;;;;;;;;;6.10;99.90;;;;;;4992174;28;19922;-67
2023/04/30 04:29:53;;;;;;;;;;;6.10;99.90;;;;;;4991099;28;20265;-68
2023/04/30 04:32:18;;;;;;;;;;;6.10;99.90;;;;;;4989672;28;19977;-67
2023/04/30 04:34:44;;;;;;;;;;;6.10;99.90;;;;;;4975920;28;19943;-68
2023/04/30 04:37:11;;;;;;;;;;;6.20;99.90;;;;;;4986595;28;19924;-68
2023/04/30 04:39:37;;;;;;;;;;;6.10;99.90;;;;;;5017302;28;20106;-67
2023/04/30 04:42:03;;;;;;;;;;;6.00;99.90;;;;;;4992033;28;19921;-68
2023/04/30 04:44:29;;;;;;;;;;;6.00;99.90;;;;;;5017301;28;19917;-67
2023/04/30 04:46:55;;;;;;;;;;;6.00;99.90;;;;;;5006620;28;19941;-68
2023/04/30 04:49:21;;;;;;;;;;;6.00;99.90;;;;;;5015016;28;19971;-67
2023/04/30 04:51:46;;;;;;;;;;;6.00;99.90;;;;;;4988799;28;19952;-67
2023/04/30 04:54:12;;;;;;;;;;;6.10;99.90;;;;;;5019302;28;19977;-67
2023/04/30 04:56:38;;;;;;;;;;;6.20;99.90;;;;;;4998937;28;19940;-67
2023/04/30 04:59:03;;;;;;;;;;;6.10;99.90;;;;;;4994279;28;20343;-67
2023/04/30 05:01:29;;;;;;;;;;;6.10;99.90;;;;;;5000657;28;19953;-67
2023/04/30 05:03:55;;;;;;;;;;;6.10;99.90;;;;;;5003634;28;20567;-67
2023/04/30 05:06:21;;;;;;;;;;;6.10;99.90;;;;;;4984136;28;19959;-67
2023/04/30 05:08:46;;;;;;;;;;;6.20;99.90;;;;;;4994262;28;20250;-68
2023/04/30 05:11:12;;;;;;;;;;;6.20;99.90;;;;;;4989745;28;20641;-67
2023/04/30 05:13:38;;;;;;;;;;;6.20;99.90;;;;;;4975386;28;19922;-68
2023/04/30 05:16:03;;;;;;;;;;;6.30;99.90;;;;;;4983736;28;19925;-68
2023/04/30 05:18:29;;;;;;;;;;;6.30;99.90;;;;;;4975514;28;19929;-67
2023/04/30 05:20:55;;;;;;;;;;;6.30;99.90;;;;;;4975082;28;19918;-68
2023/04/30 05:23:20;;;;;;;;;;;6.40;99.90;;;;;;4973559;28;20334;-67
2023/04/30 05:25:50;;;;;;;;;;;6.40;99.90;;;;;;4987310;28;20008;-68
2023/04/30 05:28:16;;;;;;;;;;;6.40;99.90;;;;;;4971367;28;19952;-68
2023/04/30 05:30:42;;;;;;;;;;;6.50;99.90;;;;;;4987329;28;19929;-68
2023/04/30 05:33:07;;;;;;;;;;;6.60;99.90;;;;;;4973863;28;19929;-68
2023/04/30 05:35:34;;;;;;;;;;;6.60;99.90;;;;;;5007430;28;19923;-68
2023/04/30 05:38:01;;;;;;;;;;;6.60;99.90;;;;;;4996301;28;20211;-68
2023/04/30 05:40:27;;;;;;;;;;;6.70;99.90;;;;;;4964667;28;20368;-67
2023/04/30 05:42:53;;;;;;;;;;;6.70;99.90;;;;;;4957582;28;19949;-67
2023/04/30 05:45:18;;;;;;;;;;;6.70;99.90;;;;;;4972276;28;20052;-68
2023/04/30 05:47:44;;;;;;;;;;;6.70;99.90;;;;;;4992536;28;19913;-68
2023/04/30 05:50:10;;;;;;;;;;;6.80;99.90;;;;;;4986653;28;19925;-68
2023/04/30 05:52:36;;;;;;;;;;;6.80;99.90;;;;;;4992448;28;19981;-68
2023/04/30 05:55:02;;;;;;;;;;;6.90;99.90;;;;;;4961926;28;19928;-68
2023/04/30 05:57:29;;;;;;;;;;;6.90;99.90;;;;;;4977509;28;19937;-68
2023/04/30 05:59:55;;;;;;;;;;;6.90;99.90;;;;;;4982108;28;19980;-68
2023/04/30 06:02:22;;;;;;;;;;;7.00;99.90;;;;;;4974059;28;20328;-68
2023/04/30 06:04:47;;;;;;;;;;;7.00;99.90;;;;;;4976082;28;19972;-68
2023/04/30 06:07:13;;;;;;;;;;;7.00;99.90;;;;;;4982950;28;19922;-67
2023/04/30 06:09:39;;;;;;;;;;;7.10;99.90;;;;;;4992698;28;19918;-67
2023/04/30 06:12:06;;;;;;;;;;;7.10;99.90;;;;;;4961667;28;19918;-67
2023/04/30 06:14:32;;;;;;;;;;;7.10;99.90;;;;;;4973910;28;20304;-67
2023/04/30 06:16:58;;;;;;;;;;;7.20;99.90;;;;;;4989539;28;19933;-67
2023/04/30 06:19:25;;;;;;;;;;;7.10;99.90;;;;;;4997483;28;19983;-67
2023/04/30 06:21:51;;;;;;;;;;;7.20;99.90;;;;;;5014236;28;19917;-67
2023/04/30 06:24:16;;;;;;;;;;;7.20;99.90;;;;;;5007979;28;20249;-70
2023/04/30 06:26:42;;;;;;;;;;;7.30;99.90;;;;;;4993303;28;19924;-70
2023/04/30 06:29:08;;;;;;;;;;;7.30;99.90;;;;;;4997448;28;19918;-70
2023/04/30 06:31:33;;;;;;;;;;;7.30;99.90;;;;;;5014536;28;20012;-70
2023/04/30 06:33:59;;;;;;;;;;;7.40;99.90;;;;;;4996632;28;20338;-71
2023/04/30 06:36:26;;;;;;;;;;;7.40;99.90;;;;;;4979295;28;19922;-71
2023/04/30 06:38:51;;;;;;;;;;;7.50;99.90;;;;;;4988095;28;19914;-71
2023/04/30 06:41:18;;;;;;;;;;;7.50;99.90;;;;;;4980925;28;19927;-71
2023/04/30 06:43:44;;;;;;;;;;;7.60;99.90;;;;;;4980832;28;20012;-70
2023/04/30 06:46:09;;;;;;;;;;;7.60;99.90;;;;;;5010760;28;20305;-70
2023/04/30 06:48:35;;;;;;;;;;;7.60;99.90;;;;;;4996615;28;19948;-70
2023/04/30 06:51:00;;;;;;;;;;;7.60;99.90;;;;;;4996975;28;19917;-70
2023/04/30 06:53:26;;;;;;;;;;;7.60;99.90;;;;;;5007523;28;19927;-70
2023/04/30 06:55:52;;;;;;;;;;;7.60;99.90;;;;;;5003156;28;20373;-70
2023/04/30 06:58:19;;;;;;;;;;;7.70;99.90;;;;;;4997134;28;19921;-75
2023/04/30 07:00:44;;;;;;;;;;;7.80;99.90;;;;;;4989021;28;19917;-75
2023/04/30 07:03:10;;;;;;;;;;;7.90;99.90;;;;;;4998625;28;20223;-75
2023/04/30 07:05:36;;;;;;;;;;;8.00;99.90;;;;;;4997431;28;19988;-74
2023/04/30 07:08:02;;;;;;;;;;;8.00;99.90;;;;;;4981659;28;20004;-75
2023/04/30 07:10:28;;;;;;;;;;;8.10;99.90;;;;;;4998204;28;20508;-75
2023/04/30 07:12:54;;;;;;;;;;;8.20;99.90;;;;;;5013940;28;20004;-75
2023/04/30 07:15:20;;;;;;;;;;;8.20;99.90;;;;;;4998041;28;19949;-75
2023/04/30 07:17:47;;;;;;;;;;;8.30;99.90;;;;;;4984913;28;19957;-75
2023/04/30 07:20:16;;;;;;;;;;;8.40;99.90;;;;;;4994704;28;19940;-75
2023/04/30 07:22:45;;;;;;;;;;;8.50;99.90;;;;;;5014120;28;19917;-75
2023/04/30 07:25:11;;;;;;;;;;;8.50;99.90;;;;;;4985731;28;19914;-75
2023/04/30 07:27:37;;;;;;;;;;;8.50;99.90;;;;;;4985157;28;20008;-75
2023/04/30 07:30:03;;;;;;;;;;;8.60;99.90;;;;;;4979815;28;20068;-75
2023/04/30 07:32:29;;;;;;;;;;;8.70;99.90;;;;;;4978589;28;19914;-74
2023/04/30 07:34:54;;;;;;;;;;;8.70;99.90;;;;;;4980740;28;19932;-74
2023/04/30 07:37:20;;;;;;;;;;;8.80;99.90;;;;;;4988113;28;19918;-74
2023/04/30 07:39:46;;;;;;;;;;;8.70;99.90;;;;;;4987337;28;20072;-75
2023/04/30 07:42:12;;;;;;;;;;;8.90;99.90;;;;;;4986758;28;20406;-74
2023/04/30 07:44:37;;;;;;;;;;;8.90;99.90;;;;;;5002569;28;19929;-75
2023/04/30 07:47:03;;;;;;;;;;;9.00;99.90;;;;;;4990122;28;19920;-75
2023/04/30 07:49:29;;;;;;;;;;;9.10;99.90;;;;;;4975888;28;19918;-74
2023/04/30 07:51:55;;;;;;;;;;;9.10;99.90;;;;;;4994560;28;19992;-75
2023/04/30 07:54:21;;;;;;;;;;;9.20;99.90;;;;;;4996399;28;19917;-74
2023/04/30 07:56:47;;;;;;;;;;;9.20;99.90;;;;;;5002575;28;19924;-74
2023/04/30 07:59:13;;;;;;;;;;;9.20;99.90;;;;;;4990868;28;20318;-74
2023/04/30 08:01:39;;;;;;;;;;;9.20;99.90;;;;;;5007205;28;19972;-75
2023/04/30 08:04:05;;;;;;;;;;;9.20;99.90;;;;;;5000074;28;19968;-75
2023/04/30 08:06:31;;;;;;;;;;;9.30;99.90;;;;;;4975734;28;20008;-74
2023/04/30 08:08:57;;;;;;;;;;;9.40;99.90;;;;;;5012789;28;20000;-74
2023/04/30 08:11:22;;;;;;;;;;;9.50;99.90;;;;;;4998726;28;19976;-75
2023/04/30 08:13:48;;;;;;;;;;;9.50;99.90;;;;;;5007626;28;19971;-75
2023/04/30 08:16:13;;;;;;;;;;;9.60;99.90;;;;;;4983777;28;19981;-75
2023/04/30 08:18:43;;;;;;;;;;;9.60;99.90;;;;;;4993697;28;19948;-75
2023/04/30 08:21:09;;;;;;;;;;;9.70;99.90;;;;;;4974713;28;19914;-75
2023/04/30 08:23:34;;;;;;;;;;;9.70;99.90;;;;;;4982045;28;20254;-75
2023/04/30 08:26:01;;;;;;;;;;;9.90;99.90;;;;;;4980959;28;19925;-75
2023/04/30 08:28:27;;;;;;;;;;;9.90;99.90;;;;;;4963217;28;19933;-75
2023/04/30 08:30:52;;;;;;;;;;;9.90;99.90;;;;;;4995162;28;20025;-75
2023/04/30 08:33:18;;;;;;;;;;;9.90;99.90;;;;;;4983760;28;19914;-75
2023/04/30 08:35:45;;;;;;;;;;;9.80;99.90;;;;;;4980428;28;20017;-75
2023/04/30 08:38:11;;;;;;;;;;;9.90;99.70;;;;;;4993258;28;19917;-75
2023/04/30 08:40:37;;;;;;;;;;;9.90;99.90;;;;;;4972039;28;19945;-76
2023/04/30 08:43:07;;;;;;;;;;;10.00;99.90;;;;;;4988503;28;20254;-75
2023/04/30 08:45:33;;;;;;;;;;;10.10;99.90;;;;;;4969528;28;20330;-75
2023/04/30 08:47:59;;;;;;;;;;;10.20;99.90;;;;;;4972833;28;19914;-75
2023/04/30 08:50:24;;;;;;;;;;;10.30;99.90;;;;;;4971600;28;19920;-75
2023/04/30 08:52:50;;;;;;;;;;;10.30;99.90;;;;;;5002637;28;19924;-75
2023/04/30 08:55:16;;;;;;;;;;;10.40;99.90;;;;;;5009791;28;20004;-75
2023/04/30 08:57:41;;;;;;;;;;;10.40;98.50;;;;;;4961117;28;19918;-75
2023/04/30 09:00:07;;;;;;;;;;;10.40;99.20;;;;;;5002644;28;20632;-75
2023/04/30 09:02:34;;;;;;;;;;;10.40;99.90;;;;;;4993691;28;20333;-75
2023/04/30 09:05:00;;;;;;;;;;;10.40;98.90;;;;;;4987122;28;19918;-75
2023/04/30 09:07:27;;;;;;;;;;;10.40;99.30;;;;;;4982378;28;19944;-76
2023/04/30 09:09:53;;;;;;;;;;;10.50;99.10;;;;;;4991960;28;19917;-75
2023/04/30 09:12:21;;;;;;;;;;;10.60;99.90;;;;;;4989552;28;19914;-75
2023/04/30 09:14:58;;;;;;;;;;;10.70;99.90;;;;;;4983906;28;19930;-75
2023/04/30 09:17:24;;;;;;;;;;;10.70;99.90;;;;;;4985513;28;20291;-75
2023/04/30 09:19:50;;;;;;;;;;;10.90;99.70;;;;;;5006376;28;19918;-76
2023/04/30 09:22:22;;;;;;;;;;;10.80;97.70;;;;;;4981066;28;20414;-76
2023/04/30 09:24:49;;;;;;;;;;;10.80;97.80;;;;;;4980922;28;20294;-75
2023/04/30 09:27:15;;;;;;;;;;;10.90;98.90;;;;;;4974339;28;19921;-76
2023/04/30 09:29:41;;;;;;;;;;;11.00;99.60;;;;;;4990246;28;19950;-75
2023/04/30 09:32:07;;;;;;;;;;;11.10;98.70;;;;;;4975102;28;19918;-75
2023/04/30 09:34:33;;;;;;;;;;;11.20;98.90;;;;;;4991738;28;20378;-75
2023/04/30 09:36:58;;;;;;;;;;;11.30;99.30;;;;;;4983267;28;19914;-76
2023/04/30 09:39:24;;;;;;;;;;;11.40;98.10;;;;;;4958258;28;19922;-75
2023/04/30 09:41:51;;;;;;;;;;;11.50;98.40;;;;;;4968685;28;19924;-76
2023/04/30 09:44:27;;;;;;;;;;;11.60;97.40;;;;;;5013104;28;20374;-75
2023/04/30 09:46:52;;;;;;;;;;;11.60;95.90;;;;;;4981136;28;19914;-75
2023/04/30 09:49:18;;;;;;;;;;;11.60;94.70;;;;;;4963972;28;19918;-76
2023/04/30 09:51:56;;;;;;;;;;;11.60;95.00;;;;;;4952177;28;19929;-76
2023/04/30 09:54:26;;;;;;;;;;;11.70;96.90;;;;;;4994879;28;19921;-75
2023/04/30 09:56:56;;;;;;;;;;;11.90;96.50;;;;;;5003628;28;19918;-75
2023/04/30 09:59:24;;;;;;;;;;;12.00;96.80;;;;;;4989904;28;20261;-76
2023/04/30 10:01:50;;;;;;;;;;;12.10;96.40;;;;;;4984731;28;19918;-76
2023/04/30 10:04:16;;;;;;;;;;;12.30;95.70;;;;;;4957118;28;19929;-75
2023/04/30 10:06:42;;;;;;;;;;;12.40;96.50;;;;;;5007500;28;20646;-76
2023/04/30 10:09:07;;;;;;;;;;;12.40;92.30;;;;;;4963557;28;19918;-75
2023/04/30 10:11:33;;;;;;;;;;;12.40;93.20;;;;;;4978106;28;20246;-76
2023/04/30 10:14:02;;;;;;;;;;;12.50;93.20;;;;;;4990702;28;20035;-76
2023/04/30 10:16:30;;;;;;;;;;;12.50;92.90;;;;;;4997296;28;19926;-76
2023/04/30 10:18:58;;;;;;;;;;;12.60;93.70;;;;;;5012572;28;19918;-75
2023/04/30 10:21:23;;;;;;;;;;;12.70;92.30;;;;;;4958106;28;20005;-76
2023/04/30 10:23:49;;;;;;;;;;;12.70;91.40;;;;;;4992442;28;19996;-75
2023/04/30 10:26:15;;;;;;;;;;;12.90;93.60;;;;;;4971188;28;20405;-76
2023/04/30 10:28:41;;;;;;;;;;;13.10;93.30;;;;;;4998547;28;20250;-75
2023/04/30 10:31:09;;;;;;;;;;;13.30;94.80;;;;;;4999052;28;19937;-76
2023/04/30 10:33:53;;;;;;;;;;;13.40;93.00;;;;;;4998034;28;19921;-75
2023/04/30 10:36:29;;;;;;;;;;;13.50;91.10;;;;;;4977285;28;19917;-71
2023/04/30 10:38:55;;;;;;;;;;;13.50;88.90;;;;;;4991289;28;19918;-71
2023/04/30 10:41:21;;;;;;;;;;;13.20;81.60;;;;;;4992034;28;19924;-71
2023/04/30 10:43:48;;;;;;;;;;;13.40;84.40;;;;;;5006828;28;19921;-71
2023/04/30 10:46:23;;;;;;;;;;;13.60;87.40;;;;;;4995708;28;19914;-71
2023/04/30 10:48:49;;;;;;;;;;;13.50;79.90;;;;;;5005296;28;19914;-70
2023/04/30 10:51:14;;;;;;;;;;;13.60;83.20;;;;;;4992714;28;19927;-71
2023/04/30 10:53:40;;;;;;;;;;;13.60;83.00;;;;;;5015767;28;19924;-71
2023/04/30 10:56:07;;;;;;;;;;;13.60;78.40;;;;;;4995472;28;19925;-71
2023/04/30 10:58:34;;;;;;;;;;;13.70;82.40;;;;;;4985092;28;20338;-71
2023/04/30 11:01:00;;;;;;;;;;;14.00;79.00;;;;;;5001438;28;19963;-71
2023/04/30 11:03:27;;;;;;;;;;;14.00;81.00;;;;;;4980449;28;19984;-71
2023/04/30 11:05:53;;;;;;;;;;;14.20;80.90;;;;;;4992090;28;21603;-71
2023/04/30 11:08:20;;;;;;;;;;;14.20;82.20;;;;;;4985833;28;19917;-71
2023/04/30 11:11:00;;;;;;;;;;;14.20;78.40;;;;;;4996297;28;19963;-71
2023/04/30 11:13:26;;;;;;;;;;;14.20;78.30;;;;;;4996370;28;19940;-71
2023/04/30 11:15:52;;;;;;;;;;;14.30;79.00;;;;;;4994537;28;20016;-71
2023/04/30 11:18:18;;;;;;;;;;;14.60;79.40;;;;;;4996828;28;20421;-71
2023/04/30 11:20:50;;;;;;;;;;;14.80;78.20;;;;;;5013148;28;19925;-71
2023/04/30 11:23:16;;;;;;;;;;;14.80;74.80;;;;;;4989938;28;20163;-71
2023/04/30 11:25:42;;;;;;;;;;;14.70;69.30;;;;;;4978843;28;20575;-71
2023/04/30 11:28:22;;;;;;;;;;;14.80;72.20;;;;;;5001961;28;19919;-71
2023/04/30 11:30:51;;;;;;;;;;;14.90;70.80;;;;;;5007140;28;19921;-71
2023/04/30 11:33:17;;;;;;;;;;;14.90;73.00;;;;;;5013935;28;19914;-68
2023/04/30 11:35:43;;;;;;;;;;;15.10;71.40;;;;;;4995909;28;19975;-68
2023/04/30 11:38:10;;;;;;;;;;;15.20;69.70;;;;;;4976859;28;20238;-68
2023/04/30 11:40:36;;;;;;;;;;;15.30;70.00;;;;;;4986237;28;20012;-68
2023/04/30 11:43:03;;;;;;;;;;;15.20;65.60;;;;;;5027923;28;20015;-68
2023/04/30 11:45:29;;;;;;;;;;;15.10;68.30;;;;;;5004383;28;19917;-68
2023/04/30 11:47:55;;;;;;;;;;;15.20;68.90;;;;;;4994244;28;20311;-68
2023/04/30 11:50:27;;;;;;;;;;;15.30;65.90;;;;;;5010079;28;19929;-68
2023/04/30 11:52:56;;;;;;;;;;;15.10;66.00;;;;;;4995884;28;19964;-69
2023/04/30 11:55:23;;;;;;;;;;;15.40;67.10;;;;;;5012994;28;20015;-68
2023/04/30 11:57:50;;;;;;;;;;;15.60;68.50;;;;;;4996358;28;20306;-68
2023/04/30 12:00:16;;;;;;;;;;;15.70;66.30;;;;;;4993598;28;20285;-68
2023/04/30 12:02:43;;;;;;;;;;;15.70;64.10;;;;;;4995768;28;20024;-68
2023/04/30 12:05:15;;;;;;;;;;;15.70;64.60;;;;;;4979275;28;20245;-68
2023/04/30 12:07:54;;;;;;;;;;;15.80;62.50;;;;;;4992056;28;20325;-68
2023/04/30 12:10:20;;;;;;;;;;;15.50;62.90;;;;;;4979970;28;20246;-69
2023/04/30 12:12:46;;;;;;;;;;;15.70;63.20;;;;;;4994025;28;19921;-68
2023/04/30 12:15:25;;;;;;;;;;;15.50;64.50;;;;;;4979745;28;19925;-68
2023/04/30 12:17:50;;;;;;;;;;;15.70;64.50;;;;;;4999558;28;19913;-69
2023/04/30 12:20:17;;;;;;;;;;;16.00;64.10;;;;;;4992255;28;19933;-68
2023/04/30 12:22:43;;;;;;;;;;;15.90;60.80;;;;;;4996034;28;19928;-68
2023/04/30 12:25:12;;;;;;;;;;;15.90;60.50;;;;;;4978156;28;19918;-68
2023/04/30 12:27:41;;;;;;;;;;;16.20;61.80;;;;;;5011283;28;19929;-68
2023/04/30 12:30:08;;;;;;;;;;;15.80;56.60;;;;;;4985065;28;20075;-68
2023/04/30 12:32:43;;;;;;;;;;;16.00;59.60;;;;;;4991931;28;19925;-68
2023/04/30 12:35:13;;;;;;;;;;;16.40;59.90;;;;;;4992940;28;19926;-68
2023/04/30 12:37:45;;;;;;;;;;;16.70;59.10;;;;;;4971303;28;20001;-68
2023/04/30 12:40:12;;;;;;;;;;;16.90;59.10;;;;;;4975639;28;19917;-69
2023/04/30 12:42:37;;;;;;;;;;;16.80;56.10;;;;;;5019518;28;19933;-69
2023/04/30 12:45:03;;;;;;;;;;;17.00;57.70;;;;;;4989611;28;19917;-69
2023/04/30 12:47:29;;;;;;;;;;;17.00;56.30;;;;;;4990161;28;20400;-68
2023/04/30 12:49:55;;;;;;;;;;;16.80;54.20;;;;;;4981551;28;19949;-69
2023/04/30 12:52:22;;;;;;;;;;;17.00;55.60;;;;;;5005128;28;19924;-69
2023/04/30 12:54:48;;;;;;;;;;;17.20;54.40;;;;;;5004402;28;19937;-69
2023/04/30 12:57:13;;;;;;;;;;;17.30;54.50;;;;;;4992109;28;19918;-69
2023/04/30 12:59:54;;;;;;;;;;;17.50;55.50;;;;;;4997197;28;20004;-69
2023/04/30 13:02:24;;;;;;;;;;;17.50;55.20;;;;;;4985162;28;20666;-69
2023/04/30 13:04:50;;;;;;;;;;;17.80;54.80;;;;;;5006800;28;19913;-69
2023/04/30 13:07:15;;;;;;;;;;;17.20;52.50;;;;;;5014463;28;20253;-69
2023/04/30 13:09:41;;;;;;;;;;;17.30;53.30;;;;;;5003558;28;19928;-69
2023/04/30 13:12:07;;;;;;;;;;;17.30;52.80;;;;;;4975789;28;19918;-69
2023/04/30 13:14:32;;;;;;;;;;;17.50;51.50;;;;;;4992396;28;19925;-69
2023/04/30 13:16:58;;;;;;;;;;;17.50;52.00;;;;;;5007267;28;19921;-69
2023/04/30 13:19:24;;;;;;;;;;;17.40;54.10;;;;;;4996372;28;20000;-69
2023/04/30 13:21:50;;;;;;;;;;;17.70;53.10;;;;;;5008758;28;19913;-69
2023/04/30 13:24:16;;;;;;;;;;;17.80;51.70;;;;;;5015262;28;19918;-69
2023/04/30 13:26:42;;;;;;;;;;;17.80;51.20;;;;;;4982517;28;19928;-69
2023/04/30 13:29:08;;;;;;;;;;;17.80;51.00;;;;;;4998830;28;19917;-67
2023/04/30 13:31:33;;;;;;;;;;;18.00;50.90;;;;;;4991835;28;19917;-67
2023/04/30 13:33:59;;;;;;;;;;;18.40;53.30;;;;;;4990445;28;19922;-68
2023/04/30 13:36:25;;;;;;;;;;;18.60;51.30;;;;;;4991438;28;19914;-69
2023/04/30 13:38:51;;;;;;;;;;;18.60;49.10;;;;;;4994048;28;19914;-68
2023/04/30 13:41:17;;;;;;;;;;;18.80;49.70;;;;;;4998693;28;19913;-67
2023/04/30 13:43:45;;;;;;;;;;;18.90;47.50;;;;;;4998133;28;19913;-68
2023/04/30 13:46:10;;;;;;;;;;;19.00;49.30;;;;;;5014853;28;19917;-68
2023/04/30 13:48:36;;;;;;;;;;;19.20;48.70;;;;;;5007101;28;19924;-68
2023/04/30 13:51:02;;;;;;;;;;;19.40;50.20;;;;;;4981024;28;19913;-68
2023/04/30 13:53:27;;;;;;;;;;;19.50;47.40;;;;;;5014429;28;20329;-68
2023/04/30 13:55:53;;;;;;;;;;;19.80;48.80;;;;;;4980720;28;20606;-69
2023/04/30 13:58:19;;;;;;;;;;;20.00;48.90;;;;;;5000078;28;19918;-71
2023/04/30 14:00:44;;;;;;;;;;;20.20;47.90;;;;;;5013681;28;19967;-71
2023/04/30 14:03:10;;;;;;;;;;;19.90;45.60;;;;;;5000950;28;19975;-70
2023/04/30 14:05:37;;;;;;;;;;;19.90;48.40;;;;;;5001879;28;19924;-68
2023/04/30 14:08:03;;;;;;;;;;;20.20;47.60;;;;;;4992607;28;19984;-70
2023/04/30 14:10:28;;;;;;;;;;;20.50;46.60;;;;;;5008725;28;20369;-69
2023/04/30 14:12:54;;;;;;;;;;;20.00;45.50;;;;;;4997283;28;20019;-68
2023/04/30 14:15:20;;;;;;;;;;;20.30;47.70;;;;;;5004079;28;19937;-69
2023/04/30 14:17:45;;;;;;;;;;;19.80;44.30;;;;;;5003553;28;19922;-69
2023/04/30 14:20:12;;;;;;;;;;;19.70;45.00;;;;;;5001060;28;20258;-69
2023/04/30 14:22:38;;;;;;;;;;;19.80;46.10;;;;;;4999998;28;19929;-69